sensor_id;sensor_type;location;lat;lon;timestamp;temperature;humidity
27741;DHT22;15134;48.768;9.184;2023-11-18T00:00:50;7.10;99.90
27741;DHT22;15134;48.768;9.184;2023-11-18T00:03:16;7.10;99.90
27741;DHT22;15134;48.768;9.184;2023-11-18T00:05:42;7.10;99.90
27741;DHT22;15134;48.768;9.184;2023-11-18T00:08:08;7.20;99.90
27741;DHT22;15134;48.768;9.184;2023-11-18T00:10:34;7.20;99.90
27741;DHT22;15134;48.768;9.184;2023-11-18T00:12:59;7.20;99.90
27741;DHT22;15134;48.768;9.184;2023-11-18T00:15:27;7.20;99.90
27741;DHT22;15134;48.768;9.184;2023-11-18T00:17:53;7.20;99.90
27741;DHT22;15134;48.768;9.184;2023-11-18T00:20:18;7.30;99.90
27741;DHT22;15134;48.768;9.184;2023-11-18T00:22:45;7.20;99.90
27741;DHT22;15134;48.768;9.184;2023-11-18T00:25:11;7.30;99.90
27741;DHT22;15134;48.768;9.184;2023-11-18T00:27:40;7.20;99.90
27741;DHT22;15134;48.768;9.184;2023-11-18T00:30:07;7.20;99.90
27741;DHT22;15134;48.768;9.184;2023-11-18T00:32:39;7.20;99.90
27741;DHT22;15134;48.768;9.184;2023-11-18T00:35:06;7.30;99.90
27741;DHT22;15134;48.768;9.184;2023-11-18T00:37:32;7.30;99.90
27741;DHT22;15134;48.768;9.184;2023-11-18T00:39:58;7.30;99.90
27741;DHT22;15134;48.768;9.184;2023-11-18T00:42:24;7.30;99.90
27741;DHT22;15134;48.768;9.184;2023-11-18T00:44:50;7.30;99.90
27741;DHT22;15134;48.768;9.184;2023-11-18T00:47:16;7.30;99.90
27741;DHT22;15134;48.768;9.184;2023-11-18T00:49:42;7.20;99.90
27741;DHT22;15134;48.768;9.184;2023-11-18T00:52:07;7.20;99.90
27741;DHT22;15134;48.768;9.184;2023-11-18T00:54:34;7.20;99.90
27741;DHT22;15134;48.768;9.184;2023-11-18T00:57:01;7.30;99.90
27741;DHT22;15134;48.768;9.184;2023-11-18T00:59:26;7.30;99.90
27741;DHT22;15134;48.768;9.184;2023-11-18T01:01:52;7.30;99.90
27741;DHT22;15134;48.768;9.184;2023-11-18T01:04:18;7.30;99.90
27741;DHT22;15134;48.768;9.184;2023-11-18T01:06:45;7.20;99.90
27741;DHT22;15134;48.768;9.184;2023-11-18T01:09:11;7.20;99.90
27741;DHT22;15134;48.768;9.184;2023-11-18T01:11:37;7.20;99.90
27741;DHT22;15134;48.768;9.184;2023-11-18T01:14:03;7.20;99.90
27741;DHT22;15134;48.768;9.184;2023-11-18T01:16:29;7.20;99.90
27741;DHT22;15134;48.768;9.184;2023-11-18T01:18:56;7.30;99.90
27741;DHT22;15134;48.768;9.184;2023-11-18T01:21:21;7.30;99.90
27741;DHT22;15134;48.768;9.184;2023-11-18T01:23:47;7.30;99.90
27741;DHT22;15134;48.768;9.184;2023-11-18T01:26:14;7.30;99.90
27741;DHT22;15134;48.768;9.184;2023-11-18T01:28:41;7.30;99.90
27741;DHT22;15134;48.768;9.184;2023-11-18T01:31:09;7.30;99.90
27741;DHT22;15134;48.768;9.184;2023-11-18T01:33:39;7.30;99.90
27741;DHT22;15134;48.768;9.184;2023-11-18T01:36:09;7.30;99.90
27741;DHT22;15134;48.768;9.184;2023-11-18T01:38:38;7.30;99.90
27741;DHT22;15134;48.768;9.184;2023-11-18T01:41:05;7.30;99.90
27741;DHT22;15134;48.768;9.184;2023-11-18T01:43:31;7.30;99.90
27741;DHT22;15134;48.768;9.184;2023-11-18T01:46:02;7.30;99.90
27741;DHT22;15134;48.768;9.184;2023-11-18T01:48:31;7.40;99.90
27741;DHT22;15134;48.768;9.184;2023-11-18T01:50:59;7.40;99.90
27741;DHT22;15134;48.768;9.184;2023-11-18T01:53:25;7.40;99.90
27741;DHT22;15134;48.768;9.184;2023-11-18T01:55:52;7.40;99.90
27741;DHT22;15134;48.768;9.184;2023-11-18T01:58:19;7.30;99.90
27741;DHT22;15134;48.768;9.184;2023-11-18T02:00:46;7.30;99.90
27741;DHT22;15134;48.768;9.184;2023-11-18T02:03:12;7.30;99.90
27741;DHT22;15134;48.768;9.184;2023-11-18T02:05:38;7.20;99.90
27741;DHT22;15134;48.768;9.184;2023-11-18T02:08:05;7.20;99.90
27741;DHT22;15134;48.768;9.184;2023-11-18T02:10:34;7.20;99.90
27741;DHT22;15134;48.768;9.184;2023-11-18T02:13:09;7.20;99.90
27741;DHT22;15134;48.768;9.184;2023-11-18T02:15:39;7.20;99.90
27741;DHT22;15134;48.768;9.184;2023-11-18T02:18:06;7.20;99.90
27741;DHT22;15134;48.768;9.184;2023-11-18T02:20:38;7.20;99.90
27741;DHT22;15134;48.768;9.184;2023-11-18T02:23:04;7.20;99.90
27741;DHT22;15134;48.768;9.184;2023-11-18T02:25:33;7.20;99.90
27741;DHT22;15134;48.768;9.184;2023-11-18T02:28:00;7.20;99.90
27741;DHT22;15134;48.768;9.184;2023-11-18T02:30:26;7.20;99.90
27741;DHT22;15134;48.768;9.184;2023-11-18T02:33:11;7.10;99.90
27741;DHT22;15134;48.768;9.184;2023-11-18T02:35:47;7.10;99.90
27741;DHT22;15134;48.768;9.184;2023-11-18T02:38:18;7.10;99.90
27741;DHT22;15134;48.768;9.184;2023-11-18T02:40:45;7.20;99.90
27741;DHT22;15134;48.768;9.184;2023-11-18T02:43:14;7.20;99.90
27741;DHT22;15134;48.768;9.184;2023-11-18T02:45:41;7.20;99.90
27741;DHT22;15134;48.768;9.184;2023-11-18T02:48:07;7.20;99.90
27741;DHT22;15134;48.768;9.184;2023-11-18T02:50:34;7.20;99.90
27741;DHT22;15134;48.768;9.184;2023-11-18T02:53:01;7.20;99.90
27741;DHT22;15134;48.768;9.184;2023-11-18T02:55:28;7.20;99.90
27741;DHT22;15134;48.768;9.184;2023-11-18T02:57:53;7.30;99.90
27741;DHT22;15134;48.768;9.184;2023-11-18T03:00:19;7.20;99.90
27741;DHT22;15134;48.768;9.184;2023-11-18T03:02:48;7.20;99.90
27741;DHT22;15134;48.768;9.184;2023-11-18T03:05:16;7.20;99.90
27741;DHT22;15134;48.768;9.184;2023-11-18T03:07:42;7.20;99.90
27741;DHT22;15134;48.768;9.184;2023-11-18T03:10:10;7.20;99.90
27741;DHT22;15134;48.768;9.184;2023-11-18T03:12:37;7.10;99.90
27741;DHT22;15134;48.768;9.184;2023-11-18T03:15:07;7.10;99.90
27741;DHT22;15134;48.768;9.184;2023-11-18T03:17:37;7.10;99.90
27741;DHT22;15134;48.768;9.184;2023-11-18T03:20:04;7.00;99.90
27741;DHT22;15134;48.768;9.184;2023-11-18T03:22:34;7.00;99.90
27741;DHT22;15134;48.768;9.184;2023-11-18T03:25:00;6.90;99.90
27741;DHT22;15134;48.768;9.184;2023-11-18T03:27:25;6.90;99.90
27741;DHT22;15134;48.768;9.184;2023-11-18T03:29:52;6.80;99.90
27741;DHT22;15134;48.768;9.184;2023-11-18T03:32:18;6.70;99.90
27741;DHT22;15134;48.768;9.184;2023-11-18T03:34:43;6.70;99.90
27741;DHT22;15134;48.768;9.184;2023-11-18T03:37:10;6.70;99.90
27741;DHT22;15134;48.768;9.184;2023-11-18T03:39:36;6.70;99.90
27741;DHT22;15134;48.768;9.184;2023-11-18T03:42:01;6.70;99.90
27741;DHT22;15134;48.768;9.184;2023-11-18T03:44:27;6.80;99.90
27741;DHT22;15134;48.768;9.184;2023-11-18T03:46:53;6.70;99.90
27741;DHT22;15134;48.768;9.184;2023-11-18T03:49:18;6.70;99.90
27741;DHT22;15134;48.768;9.184;2023-11-18T03:51:47;6.70;99.90
27741;DHT22;15134;48.768;9.184;2023-11-18T03:54:12;6.80;99.90
27741;DHT22;15134;48.768;9.184;2023-11-18T03:56:40;6.80;99.90
27741;DHT22;15134;48.768;9.184;2023-11-18T03:59:05;6.80;99.90
27741;DHT22;15134;48.768;9.184;2023-11-18T04:01:31;6.90;99.90
27741;DHT22;15134;48.768;9.184;2023-11-18T04:03:58;6.80;99.90
27741;DHT22;15134;48.768;9.184;2023-11-18T04:06:24;6.80;99.90
27741;DHT22;15134;48.768;9.184;2023-11-18T04:08:50;6.80;99.90
27741;DHT22;15134;48.768;9.184;2023-11-18T04:11:17;6.90;99.90
27741;DHT22;15134;48.768;9.184;2023-11-18T04:13:43;6.90;99.90
27741;DHT22;15134;48.768;9.184;2023-11-18T04:16:14;6.80;99.90
27741;DHT22;15134;48.768;9.184;2023-11-18T04:18:44;6.80;99.90
27741;DHT22;15134;48.768;9.184;2023-11-18T04:21:11;6.80;99.90
27741;DHT22;15134;48.768;9.184;2023-11-18T04:23:42;6.80;99.90
27741;DHT22;15134;48.768;9.184;2023-11-18T04:26:08;6.90;99.90
27741;DHT22;15134;48.768;9.184;2023-11-18T04:28:35;6.80;99.90
27741;DHT22;15134;48.768;9.184;2023-11-18T04:31:02;6.80;99.90
27741;DHT22;15134;48.768;9.184;2023-11-18T04:33:28;6.70;99.90
27741;DHT22;15134;48.768;9.184;2023-11-18T04:35:55;6.70;99.90
27741;DHT22;15134;48.768;9.184;2023-11-18T04:38:24;6.60;99.90
27741;DHT22;15134;48.768;9.184;2023-11-18T04:40:54;6.60;99.90
27741;DHT22;15134;48.768;9.184;2023-11-18T04:43:20;6.60;99.90
27741;DHT22;15134;48.768;9.184;2023-11-18T04:45:47;6.60;99.90
27741;DHT22;15134;48.768;9.184;2023-11-18T04:48:12;6.50;99.90
27741;DHT22;15134;48.768;9.184;2023-11-18T04:50:42;6.50;99.90
27741;DHT22;15134;48.768;9.184;2023-11-18T04:53:08;6.50;99.90
27741;DHT22;15134;48.768;9.184;2023-11-18T04:55:36;6.50;99.90
27741;DHT22;15134;48.768;9.184;2023-11-18T04:58:02;6.50;99.90
27741;DHT22;15134;48.768;9.184;2023-11-18T05:00:28;6.50;99.90
27741;DHT22;15134;48.768;9.184;2023-11-18T05:02:54;6.50;99.90
27741;DHT22;15134;48.768;9.184;2023-11-18T05:05:20;6.60;99.90
27741;DHT22;15134;48.768;9.184;2023-11-18T05:07:47;6.60;99.90
27741;DHT22;15134;48.768;9.184;2023-11-18T05:10:13;6.50;99.90
27741;DHT22;15134;48.768;9.184;2023-11-18T05:12:39;6.50;99.90
27741;DHT22;15134;48.768;9.184;2023-11-18T05:15:06;6.50;99.90
27741;DHT22;15134;48.768;9.184;2023-11-18T05:17:42;6.50;99.90
27741;DHT22;15134;48.768;9.184;2023-11-18T05:20:07;6.50;99.90
27741;DHT22;15134;48.768;9.184;2023-11-18T05:22:35;6.50;99.90
27741;DHT22;15134;48.768;9.184;2023-11-18T05:25:02;6.50;99.90
27741;DHT22;15134;48.768;9.184;2023-11-18T05:27:30;6.50;99.90
27741;DHT22;15134;48.768;9.184;2023-11-18T05:29:57;6.50;99.90
27741;DHT22;15134;48.768;9.184;2023-11-18T05:32:27;6.50;99.90
27741;DHT22;15134;48.768;9.184;2023-11-18T05:34:53;6.50;99.90
27741;DHT22;15134;48.768;9.184;2023-11-18T05:37:26;6.40;99.90
27741;DHT22;15134;48.768;9.184;2023-11-18T05:39:55;6.40;99.90
27741;DHT22;15134;48.768;9.184;2023-11-18T05:42:36;6.40;99.90
27741;DHT22;15134;48.768;9.184;2023-11-18T05:45:06;6.40;99.90
27741;DHT22;15134;48.768;9.184;2023-11-18T05:47:33;6.40;99.90
27741;DHT22;15134;48.768;9.184;2023-11-18T05:50:02;6.40;99.90
27741;DHT22;15134;48.768;9.184;2023-11-18T05:52:31;6.40;99.90
27741;DHT22;15134;48.768;9.184;2023-11-18T05:54:58;6.40;99.90
27741;DHT22;15134;48.768;9.184;2023-11-18T05:57:23;6.40;99.90
27741;DHT22;15134;48.768;9.184;2023-11-18T05:59:51;6.40;99.90
27741;DHT22;15134;48.768;9.184;2023-11-18T06:02:16;6.40;99.90
27741;DHT22;15134;48.768;9.184;2023-11-18T06:04:44;6.40;99.90
27741;DHT22;15134;48.768;9.184;2023-11-18T06:07:10;6.30;99.90
27741;DHT22;15134;48.768;9.184;2023-11-18T06:09:43;6.30;99.90
27741;DHT22;15134;48.768;9.184;2023-11-18T06:12:09;6.30;99.90
27741;DHT22;15134;48.768;9.184;2023-11-18T06:14:39;6.30;99.90
27741;DHT22;15134;48.768;9.184;2023-11-18T06:17:04;6.20;99.90
27741;DHT22;15134;48.768;9.184;2023-11-18T06:19:33;6.20;99.90
27741;DHT22;15134;48.768;9.184;2023-11-18T06:21:59;6.10;99.90
27741;DHT22;15134;48.768;9.184;2023-11-18T06:24:25;6.10;99.90
27741;DHT22;15134;48.768;9.184;2023-11-18T06:26:51;6.10;99.90
27741;DHT22;15134;48.768;9.184;2023-11-18T06:29:17;6.00;99.90
27741;DHT22;15134;48.768;9.184;2023-11-18T06:31:43;6.00;99.90
27741;DHT22;15134;48.768;9.184;2023-11-18T06:34:08;5.90;99.90
27741;DHT22;15134;48.768;9.184;2023-11-18T06:36:34;5.90;99.90
27741;DHT22;15134;48.768;9.184;2023-11-18T06:39:01;5.90;99.90
27741;DHT22;15134;48.768;9.184;2023-11-18T06:41:26;5.80;99.90
27741;DHT22;15134;48.768;9.184;2023-11-18T06:43:59;5.70;99.90
27741;DHT22;15134;48.768;9.184;2023-11-18T06:46:30;5.70;99.90
27741;DHT22;15134;48.768;9.184;2023-11-18T06:49:01;5.60;99.90
27741;DHT22;15134;48.768;9.184;2023-11-18T06:51:31;5.60;99.90
27741;DHT22;15134;48.768;9.184;2023-11-18T06:54:00;5.60;99.90
27741;DHT22;15134;48.768;9.184;2023-11-18T06:56:29;5.70;99.90
27741;DHT22;15134;48.768;9.184;2023-11-18T06:58:55;5.80;99.90
27741;DHT22;15134;48.768;9.184;2023-11-18T07:01:22;5.80;99.90
27741;DHT22;15134;48.768;9.184;2023-11-18T07:03:48;5.90;99.90
27741;DHT22;15134;48.768;9.184;2023-11-18T07:06:18;5.90;99.90
27741;DHT22;15134;48.768;9.184;2023-11-18T07:08:51;5.90;99.90
27741;DHT22;15134;48.768;9.184;2023-11-18T07:11:17;5.90;99.90
27741;DHT22;15134;48.768;9.184;2023-11-18T07:13:47;6.00;99.90
27741;DHT22;15134;48.768;9.184;2023-11-18T07:16:15;6.00;99.90
27741;DHT22;15134;48.768;9.184;2023-11-18T07:18:41;6.10;99.90
27741;DHT22;15134;48.768;9.184;2023-11-18T07:21:09;6.10;99.90
27741;DHT22;15134;48.768;9.184;2023-11-18T07:23:36;6.20;99.90
27741;DHT22;15134;48.768;9.184;2023-11-18T07:26:02;6.30;99.90
27741;DHT22;15134;48.768;9.184;2023-11-18T07:28:29;6.40;99.90
27741;DHT22;15134;48.768;9.184;2023-11-18T07:30:56;6.50;99.90
27741;DHT22;15134;48.768;9.184;2023-11-18T07:33:23;6.50;99.90
27741;DHT22;15134;48.768;9.184;2023-11-18T07:35:49;6.50;99.90
27741;DHT22;15134;48.768;9.184;2023-11-18T07:38:16;6.50;99.90
27741;DHT22;15134;48.768;9.184;2023-11-18T07:40:42;6.60;99.90
27741;DHT22;15134;48.768;9.184;2023-11-18T07:43:14;6.60;99.90
27741;DHT22;15134;48.768;9.184;2023-11-18T07:45:40;6.70;99.90
27741;DHT22;15134;48.768;9.184;2023-11-18T07:48:10;6.70;99.90
27741;DHT22;15134;48.768;9.184;2023-11-18T07:50:39;6.80;99.90
27741;DHT22;15134;48.768;9.184;2023-11-18T07:53:08;6.80;99.90
27741;DHT22;15134;48.768;9.184;2023-11-18T07:55:34;6.90;99.90
27741;DHT22;15134;48.768;9.184;2023-11-18T07:58:03;6.90;99.90
27741;DHT22;15134;48.768;9.184;2023-11-18T08:00:29;7.00;99.90
27741;DHT22;15134;48.768;9.184;2023-11-18T08:02:59;7.00;99.90
27741;DHT22;15134;48.768;9.184;2023-11-18T08:05:26;7.10;99.90
27741;DHT22;15134;48.768;9.184;2023-11-18T08:07:53;7.10;99.90
27741;DHT22;15134;48.768;9.184;2023-11-18T08:10:19;7.20;99.90
27741;DHT22;15134;48.768;9.184;2023-11-18T08:12:47;7.20;99.90
27741;DHT22;15134;48.768;9.184;2023-11-18T08:15:13;7.20;99.90
27741;DHT22;15134;48.768;9.184;2023-11-18T08:17:39;7.30;99.90
27741;DHT22;15134;48.768;9.184;2023-11-18T08:20:05;7.40;99.90
27741;DHT22;15134;48.768;9.184;2023-11-18T08:22:43;7.40;99.90
27741;DHT22;15134;48.768;9.184;2023-11-18T08:25:12;7.40;99.90
27741;DHT22;15134;48.768;9.184;2023-11-18T08:27:41;7.50;99.90
27741;DHT22;15134;48.768;9.184;2023-11-18T08:30:08;7.50;99.90
27741;DHT22;15134;48.768;9.184;2023-11-18T08:32:41;7.50;99.90
27741;DHT22;15134;48.768;9.184;2023-11-18T08:35:10;7.60;99.90
27741;DHT22;15134;48.768;9.184;2023-11-18T08:37:38;7.60;99.90
27741;DHT22;15134;48.768;9.184;2023-11-18T08:40:05;7.60;99.90
27741;DHT22;15134;48.768;9.184;2023-11-18T08:42:44;7.60;99.90
27741;DHT22;15134;48.768;9.184;2023-11-18T08:45:16;7.60;99.90
27741;DHT22;15134;48.768;9.184;2023-11-18T08:47:45;7.60;99.90
27741;DHT22;15134;48.768;9.184;2023-11-18T08:50:16;7.70;99.90
27741;DHT22;15134;48.768;9.184;2023-11-18T08:52:45;7.80;99.90
27741;DHT22;15134;48.768;9.184;2023-11-18T08:55:16;7.70;99.90
27741;DHT22;15134;48.768;9.184;2023-11-18T08:58:08;7.80;99.90
27741;DHT22;15134;48.768;9.184;2023-11-18T09:00:57;7.90;99.90
27741;DHT22;15134;48.768;9.184;2023-11-18T09:03:39;7.90;99.90
27741;DHT22;15134;48.768;9.184;2023-11-18T09:06:10;8.00;99.90
27741;DHT22;15134;48.768;9.184;2023-11-18T09:08:51;8.00;99.90
27741;DHT22;15134;48.768;9.184;2023-11-18T09:11:21;8.10;99.90
27741;DHT22;15134;48.768;9.184;2023-11-18T09:13:49;8.20;99.90
27741;DHT22;15134;48.768;9.184;2023-11-18T09:16:20;8.20;99.90
27741;DHT22;15134;48.768;9.184;2023-11-18T09:18:53;8.20;99.90
27741;DHT22;15134;48.768;9.184;2023-11-18T09:21:18;8.30;99.90
27741;DHT22;15134;48.768;9.184;2023-11-18T09:23:54;8.30;99.90
27741;DHT22;15134;48.768;9.184;2023-11-18T09:26:22;8.30;99.90
27741;DHT22;15134;48.768;9.184;2023-11-18T09:28:47;8.30;99.90
27741;DHT22;15134;48.768;9.184;2023-11-18T09:31:15;8.40;99.90
27741;DHT22;15134;48.768;9.184;2023-11-18T09:33:42;8.40;99.90
27741;DHT22;15134;48.768;9.184;2023-11-18T09:36:18;8.50;99.90
27741;DHT22;15134;48.768;9.184;2023-11-18T09:38:44;8.50;99.90
27741;DHT22;15134;48.768;9.184;2023-11-18T09:41:12;8.50;99.90
27741;DHT22;15134;48.768;9.184;2023-11-18T09:43:39;8.60;99.90
27741;DHT22;15134;48.768;9.184;2023-11-18T09:48:48;8.70;99.90
27741;DHT22;15134;48.768;9.184;2023-11-18T09:51:27;8.70;99.90
27741;DHT22;15134;48.768;9.184;2023-11-18T09:54:00;8.70;99.90
27741;DHT22;15134;48.768;9.184;2023-11-18T09:59:32;8.80;99.90
27741;DHT22;15134;48.768;9.184;2023-11-18T10:02:03;8.80;99.90
27741;DHT22;15134;48.768;9.184;2023-11-18T10:04:39;8.90;99.90
27741;DHT22;15134;48.768;9.184;2023-11-18T10:07:06;9.00;99.90
27741;DHT22;15134;48.768;9.184;2023-11-18T10:09:37;9.00;99.90
27741;DHT22;15134;48.768;9.184;2023-11-18T10:12:05;9.00;99.90
27741;DHT22;15134;48.768;9.184;2023-11-18T10:14:42;8.90;99.90
27741;DHT22;15134;48.768;9.184;2023-11-18T10:17:09;8.90;99.90
27741;DHT22;15134;48.768;9.184;2023-11-18T10:19:54;9.00;99.90
27741;DHT22;15134;48.768;9.184;2023-11-18T10:22:29;9.00;99.90
27741;DHT22;15134;48.768;9.184;2023-11-18T10:24:56;8.90;99.90
27741;DHT22;15134;48.768;9.184;2023-11-18T10:27:26;8.80;99.90
27741;DHT22;15134;48.768;9.184;2023-11-18T10:30:02;8.90;99.90
27741;DHT22;15134;48.768;9.184;2023-11-18T10:32:29;8.90;99.90
27741;DHT22;15134;48.768;9.184;2023-11-18T10:34:57;9.00;99.90
27741;DHT22;15134;48.768;9.184;2023-11-18T10:37:25;9.10;99.90
27741;DHT22;15134;48.768;9.184;2023-11-18T10:39:51;9.10;99.90
27741;DHT22;15134;48.768;9.184;2023-11-18T10:42:17;9.10;99.90
27741;DHT22;15134;48.768;9.184;2023-11-18T10:44:59;9.10;99.90
27741;DHT22;15134;48.768;9.184;2023-11-18T10:47:28;9.10;99.90
27741;DHT22;15134;48.768;9.184;2023-11-18T10:49:57;9.20;99.90
27741;DHT22;15134;48.768;9.184;2023-11-18T10:52:25;9.10;99.90
27741;DHT22;15134;48.768;9.184;2023-11-18T10:54:57;9.10;99.90
27741;DHT22;15134;48.768;9.184;2023-11-18T10:57:24;9.20;99.90
27741;DHT22;15134;48.768;9.184;2023-11-18T11:00:03;9.30;99.90
27741;DHT22;15134;48.768;9.184;2023-11-18T11:02:33;9.30;99.90
27741;DHT22;15134;48.768;9.184;2023-11-18T11:05:05;9.30;99.90
27741;DHT22;15134;48.768;9.184;2023-11-18T11:07:45;9.30;99.90
27741;DHT22;15134;48.768;9.184;2023-11-18T11:10:11;9.30;99.90
27741;DHT22;15134;48.768;9.184;2023-11-18T11:13:00;9.30;99.90
27741;DHT22;15134;48.768;9.184;2023-11-18T11:15:31;9.30;99.90
27741;DHT22;15134;48.768;9.184;2023-11-18T11:18:08;9.30;99.90
27741;DHT22;15134;48.768;9.184;2023-11-18T11:20:41;9.40;99.90
27741;DHT22;15134;48.768;9.184;2023-11-18T11:26:01;9.40;99.90
27741;DHT22;15134;48.768;9.184;2023-11-18T11:28:40;9.40;99.90
27741;DHT22;15134;48.768;9.184;2023-11-18T11:33:49;9.40;99.90
27741;DHT22;15134;48.768;9.184;2023-11-18T11:36:21;9.50;99.90
27741;DHT22;15134;48.768;9.184;2023-11-18T11:38:52;9.50;99.90
27741;DHT22;15134;48.768;9.184;2023-11-18T11:41:23;9.50;99.90
27741;DHT22;15134;48.768;9.184;2023-11-18T11:43:53;9.50;99.90
27741;DHT22;15134;48.768;9.184;2023-11-18T11:46:25;9.50;99.90
27741;DHT22;15134;48.768;9.184;2023-11-18T11:49:01;9.50;99.90
27741;DHT22;15134;48.768;9.184;2023-11-18T11:51:43;9.60;99.90
27741;DHT22;15134;48.768;9.184;2023-11-18T11:54:13;9.60;99.90
27741;DHT22;15134;48.768;9.184;2023-11-18T11:56:44;9.60;99.90
27741;DHT22;15134;48.768;9.184;2023-11-18T11:59:16;9.60;99.90
27741;DHT22;15134;48.768;9.184;2023-11-18T12:01:42;9.50;99.90
27741;DHT22;15134;48.768;9.184;2023-11-18T12:04:15;9.50;99.90
27741;DHT22;15134;48.768;9.184;2023-11-18T12:06:47;9.50;99.90
27741;DHT22;15134;48.768;9.184;2023-11-18T12:09:17;9.50;99.90
27741;DHT22;15134;48.768;9.184;2023-11-18T12:11:48;9.50;99.90
27741;DHT22;15134;48.768;9.184;2023-11-18T12:14:17;9.50;99.90
27741;DHT22;15134;48.768;9.184;2023-11-18T12:17:08;9.50;99.90
27741;DHT22;15134;48.768;9.184;2023-11-18T12:19:37;9.50;99.90
27741;DHT22;15134;48.768;9.184;2023-11-18T12:22:19;9.50;99.90
27741;DHT22;15134;48.768;9.184;2023-11-18T12:30:37;9.40;99.90
27741;DHT22;15134;48.768;9.184;2023-11-18T12:33:00;9.40;99.90
27741;DHT22;15134;48.768;9.184;2023-11-18T12:35:58;9.40;99.90
27741;DHT22;15134;48.768;9.184;2023-11-18T12:49:18;9.20;99.90
27741;DHT22;15134;48.768;9.184;2023-11-18T12:51:55;9.20;99.90
27741;DHT22;15134;48.768;9.184;2023-11-18T12:54:28;9.20;99.90
27741;DHT22;15134;48.768;9.184;2023-11-18T12:56:56;9.20;99.90
27741;DHT22;15134;48.768;9.184;2023-11-18T12:59:22;9.20;99.90
27741;DHT22;15134;48.768;9.184;2023-11-18T13:01:49;9.10;99.90
27741;DHT22;15134;48.768;9.184;2023-11-18T13:04:32;9.10;99.90
27741;DHT22;15134;48.768;9.184;2023-11-18T13:07:00;9.10;99.90
27741;DHT22;15134;48.768;9.184;2023-11-18T13:09:27;9.00;99.90
27741;DHT22;15134;48.768;9.184;2023-11-18T13:11:59;9.10;99.90
27741;DHT22;15134;48.768;9.184;2023-11-18T13:14:31;9.10;99.90
27741;DHT22;15134;48.768;9.184;2023-11-18T13:17:02;9.10;99.90
27741;DHT22;15134;48.768;9.184;2023-11-18T13:19:31;9.10;99.90
27741;DHT22;15134;48.768;9.184;2023-11-18T13:22:09;9.10;99.90
27741;DHT22;15134;48.768;9.184;2023-11-18T13:24:40;9.10;99.90
27741;DHT22;15134;48.768;9.184;2023-11-18T13:27:07;9.10;99.90
27741;DHT22;15134;48.768;9.184;2023-11-18T13:29:38;9.10;99.90
27741;DHT22;15134;48.768;9.184;2023-11-18T13:32:10;9.10;99.90
27741;DHT22;15134;48.768;9.184;2023-11-18T13:34:36;9.10;99.90
27741;DHT22;15134;48.768;9.184;2023-11-18T13:37:06;9.00;99.90
27741;DHT22;15134;48.768;9.184;2023-11-18T13:39:33;9.00;99.90
27741;DHT22;15134;48.768;9.184;2023-11-18T13:42:18;9.00;99.90
27741;DHT22;15134;48.768;9.184;2023-11-18T13:44:44;9.00;99.90
27741;DHT22;15134;48.768;9.184;2023-11-18T13:47:11;9.00;99.90
27741;DHT22;15134;48.768;9.184;2023-11-18T13:49:38;9.00;99.90
27741;DHT22;15134;48.768;9.184;2023-11-18T13:52:08;9.00;99.90
27741;DHT22;15134;48.768;9.184;2023-11-18T13:54:37;9.00;99.90
27741;DHT22;15134;48.768;9.184;2023-11-18T13:57:06;8.90;99.90
27741;DHT22;15134;48.768;9.184;2023-11-18T13:59:32;8.90;99.90
27741;DHT22;15134;48.768;9.184;2023-11-18T14:01:59;8.90;99.90
27741;DHT22;15134;48.768;9.184;2023-11-18T14:04:33;8.90;99.90
27741;DHT22;15134;48.768;9.184;2023-11-18T14:07:00;8.90;99.90
27741;DHT22;15134;48.768;9.184;2023-11-18T14:09:36;9.00;99.90
27741;DHT22;15134;48.768;9.184;2023-11-18T14:12:06;9.00;99.90
27741;DHT22;15134;48.768;9.184;2023-11-18T14:14:33;9.00;99.90
27741;DHT22;15134;48.768;9.184;2023-11-18T14:16:59;9.00;99.90
27741;DHT22;15134;48.768;9.184;2023-11-18T14:19:25;9.00;99.90
27741;DHT22;15134;48.768;9.184;2023-11-18T14:21:53;9.00;99.90
27741;DHT22;15134;48.768;9.184;2023-11-18T14:24:20;8.90;99.90
27741;DHT22;15134;48.768;9.184;2023-11-18T14:26:49;9.00;99.90
27741;DHT22;15134;48.768;9.184;2023-11-18T14:29:16;8.90;99.90
27741;DHT22;15134;48.768;9.184;2023-11-18T14:31:41;8.90;99.90
27741;DHT22;15134;48.768;9.184;2023-11-18T14:34:07;8.90;99.90
27741;DHT22;15134;48.768;9.184;2023-11-18T14:36:37;8.90;99.90
27741;DHT22;15134;48.768;9.184;2023-11-18T14:39:03;8.90;99.90
27741;DHT22;15134;48.768;9.184;2023-11-18T14:41:30;8.80;99.90
27741;DHT22;15134;48.768;9.184;2023-11-18T14:43:57;8.80;99.90
27741;DHT22;15134;48.768;9.184;2023-11-18T14:46:23;8.80;99.90
27741;DHT22;15134;48.768;9.184;2023-11-18T14:48:50;8.80;99.90
27741;DHT22;15134;48.768;9.184;2023-11-18T14:51:17;8.80;99.90
27741;DHT22;15134;48.768;9.184;2023-11-18T14:53:42;8.80;99.90
27741;DHT22;15134;48.768;9.184;2023-11-18T14:56:11;8.70;99.90
27741;DHT22;15134;48.768;9.184;2023-11-18T14:58:37;8.80;99.90
27741;DHT22;15134;48.768;9.184;2023-11-18T15:01:03;8.80;99.90
27741;DHT22;15134;48.768;9.184;2023-11-18T15:03:29;8.80;99.90
27741;DHT22;15134;48.768;9.184;2023-11-18T15:05:56;8.70;99.90
27741;DHT22;15134;48.768;9.184;2023-11-18T15:08:22;8.80;99.90
27741;DHT22;15134;48.768;9.184;2023-11-18T15:10:48;8.80;99.90
27741;DHT22;15134;48.768;9.184;2023-11-18T15:13:14;8.80;99.90
27741;DHT22;15134;48.768;9.184;2023-11-18T15:15:46;8.70;99.90
27741;DHT22;15134;48.768;9.184;2023-11-18T15:18:15;8.80;99.90
27741;DHT22;15134;48.768;9.184;2023-11-18T15:20:43;8.70;99.90
27741;DHT22;15134;48.768;9.184;2023-11-18T15:23:13;8.70;99.90
27741;DHT22;15134;48.768;9.184;2023-11-18T15:25:39;8.70;99.90
27741;DHT22;15134;48.768;9.184;2023-11-18T15:28:06;8.70;99.90
27741;DHT22;15134;48.768;9.184;2023-11-18T15:30:36;8.70;99.90
27741;DHT22;15134;48.768;9.184;2023-11-18T15:33:02;8.60;99.90
27741;DHT22;15134;48.768;9.184;2023-11-18T15:35:28;8.70;99.90
27741;DHT22;15134;48.768;9.184;2023-11-18T15:37:54;8.70;99.90
27741;DHT22;15134;48.768;9.184;2023-11-18T15:40:20;8.70;99.90
27741;DHT22;15134;48.768;9.184;2023-11-18T15:42:50;8.70;99.90
27741;DHT22;15134;48.768;9.184;2023-11-18T15:45:21;8.60;99.90
27741;DHT22;15134;48.768;9.184;2023-11-18T15:47:48;8.60;99.90
27741;DHT22;15134;48.768;9.184;2023-11-18T15:50:16;8.60;99.90
27741;DHT22;15134;48.768;9.184;2023-11-18T15:52:43;8.60;99.90
27741;DHT22;15134;48.768;9.184;2023-11-18T15:55:09;8.60;99.90
27741;DHT22;15134;48.768;9.184;2023-11-18T15:57:39;8.60;99.90
27741;DHT22;15134;48.768;9.184;2023-11-18T16:00:06;8.60;99.90
27741;DHT22;15134;48.768;9.184;2023-11-18T16:02:35;8.60;99.90
27741;DHT22;15134;48.768;9.184;2023-11-18T16:05:01;8.60;99.90
27741;DHT22;15134;48.768;9.184;2023-11-18T16:07:28;8.50;99.90
27741;DHT22;15134;48.768;9.184;2023-11-18T16:09:54;8.60;99.90
27741;DHT22;15134;48.768;9.184;2023-11-18T16:12:20;8.60;99.90
27741;DHT22;15134;48.768;9.184;2023-11-18T16:14:46;8.50;99.90
27741;DHT22;15134;48.768;9.184;2023-11-18T16:17:11;8.50;99.90
27741;DHT22;15134;48.768;9.184;2023-11-18T16:19:37;8.50;99.90
27741;DHT22;15134;48.768;9.184;2023-11-18T16:22:04;8.50;99.90